Lago Argentino, Argentina
Current Conditions -  °F | °C
As of 12:00 AM on Friday 28 Nov 2014 (Local Time) from SAWG Reporting Station
Broken Clouds Broken Clouds  
Wind Chill: 55°   Ceiling: 10000
Heat Index: 55°   Visibility: 6mi
Dew Point: 43°   Wind: 3mph
Humidity: 63%   Direction: 160°SSE
Pressure: 29.38"   Gusts: NA
Location:  50.34°S, 72.25°W
Report Text: SAWG 280300Z 16003KT 9999 SCT040 BKN10013/06 Q0995
Loading
Personal Weather Stations






























Interactive Weather Map New forecast layout! Learn more

10-Day Weather Forecast

Advertisements
Track Severe Weather on mobile